Detall de PIREP

Printer-friendly versionPDF version

[2014/05/26 16:08:00]
Flight IATA:CT2103
Pilot Number:042
Company ICAO:CAT
Aircraft Type:F100/A
PAX:47
Aircraft Registration:PFJ
Departing Airport: LEAM
Destination Airport: LEVC
Alternate Airport:LEPA
Online: VATSIM
Route:DOSEK G850 RESTU UN860 NARGO
Flight Level:F260
No Slew and time accel
No pause
Crash detect
Detect pilot in Cockpit between each 30 and 45 minutes
16:08 Zero fuel Weight: 81827 Lbs, Fuel Weight: 18395 Lbs
16:08 VATSIM:LEAM 261600Z 17008KT 140V200 9999 FEW030 21/15 Q1016
16:08 VATSIM:LEVC 261600Z 09010KT 060V140 9999 SCT020 21/15 Q1017 NOSIG
16:10 Parking Brakes off
16:14 Take-off
16:14 Take off Weight: 99787 Lbs
16:14 Wind: 000º @ 000 Knots Heading: 252º
16:14 POS N36º 50´ 35´´ W002º 22´ 24´´
16:14 Gear Up: 172 Knots
16:14 Flaps:2 at 172 Knots
16:17 Flaps:1 at 193 Knots
16:17 Flaps:0 at 207 Knots
16:29 Wind:270º@025 Knots Heading: 023º GroundSpeed: 423 Knots Altitude 24340 ft
16:30 TOC
16:30 Fuel Weight: 16017 Lb
16:39 TOD
16:39 Fuel Weight: 15069 Lb
16:44 Wind:270º@023 Knots Heading: 035º Ground Speed: 284 Knots Altitude 15301 ft
16:48 Gear Down: 213 Knots
16:48 Gear Up: 213 Knots
16:48 Flaps:1 at 213 Knots
16:50 Flaps:2 at 191 Knots
16:50 Gear Down: 185 Knots
16:50 Flaps:3 at 183 Knots
16:53 TouchDown:Rate -126 ft/min Speed: 145 Knots
16:54 VATSIM:LEVC 261630Z 08009KT 050V120 9999 FEW025 20/15 Q1017 NOSIG
16:54 Land
16:54 Wind:000º@000 Knots
16:54 Heading: 295º
16:54 Flight Duration: 00:40
16:54 Landing Weight: 96092 Lbs
16:54 POS N39º 29´ 27´´ W000º 29´ 10´´
16:56 Parking brakes on
16:56 Block to Block Duration: 00:46
16:56 Final Fuel: 14065 Lbls
16:56 Spent Fuel: 4329 Lbls
16:56 Flight Length: 139 NM
16:56 TOD Land Length: 62 NM

Exportar CSV

Powered by Drupal - Modified by Danger4k